createdAt,value
2023-03-29T00:00:10.229Z,74.20
2023-03-29T00:01:35.708Z,74.00
2023-03-29T00:02:58.362Z,73.50
2023-03-29T00:04:19.542Z,73.60
2023-03-29T00:05:40.139Z,74.20
2023-03-29T00:07:00.931Z,74.10
2023-03-29T00:08:21.614Z,74.20
2023-03-29T00:09:42.416Z,74.00
2023-03-29T00:11:03.363Z,73.40
2023-03-29T00:12:24.059Z,73.90
2023-03-29T00:13:44.518Z,73.60
2023-03-29T00:15:06.646Z,74.00
2023-03-29T00:16:27.503Z,73.90
2023-03-29T00:17:49.014Z,74.00
2023-03-29T00:19:10.905Z,73.80
2023-03-29T00:20:31.523Z,74.40
2023-03-29T00:21:52.323Z,73.80
2023-03-29T00:23:13.022Z,74.00
2023-03-29T00:24:33.608Z,75.40
2023-03-29T00:25:54.689Z,75.30
2023-03-29T00:27:15.478Z,75.10
2023-03-29T00:28:36.210Z,75.80
2023-03-29T00:29:56.950Z,76.10
2023-03-29T00:31:18.420Z,75.40
2023-03-29T00:32:39.485Z,75.30
2023-03-29T00:34:00.092Z,75.10
2023-03-29T00:35:22.092Z,74.50
2023-03-29T00:36:42.866Z,74.80
2023-03-29T00:38:03.467Z,74.50
2023-03-29T00:39:25.143Z,74.20
2023-03-29T00:40:46.937Z,74.70
2023-03-29T00:42:11.497Z,75.00
2023-03-29T00:43:47.320Z,75.30
2023-03-29T00:45:17.563Z,74.80
2023-03-29T00:46:38.188Z,75.10
2023-03-29T00:48:00.603Z,75.00
2023-03-29T00:49:21.566Z,75.10
2023-03-29T00:50:45.813Z,75.70
2023-03-29T00:52:06.456Z,75.00
2023-03-29T00:53:29.446Z,74.80
2023-03-29T00:54:53.261Z,74.70
2023-03-29T00:56:18.118Z,74.50
2023-03-29T00:57:40.090Z,74.60
2023-03-29T00:59:03.332Z,75.30
2023-03-29T01:00:28.467Z,75.10
2023-03-29T01:01:51.509Z,75.50
2023-03-29T01:03:13.964Z,74.80
2023-03-29T01:04:37.432Z,74.90
2023-03-29T01:06:02.305Z,74.10
2023-03-29T01:07:25.709Z,75.20
2023-03-29T01:08:51.269Z,75.00
2023-03-29T01:10:15.821Z,74.50
2023-03-29T01:11:39.901Z,74.30
2023-03-29T01:13:03.336Z,74.10
2023-03-29T01:14:28.393Z,74.30
2023-03-29T01:15:49.335Z,74.30
2023-03-29T01:17:10.272Z,74.10
2023-03-29T01:18:30.976Z,74.50
2023-03-29T01:19:56.105Z,74.60
2023-03-29T01:21:22.035Z,74.80
2023-03-29T01:22:55.542Z,74.90
2023-03-29T01:24:34.872Z,74.80
2023-03-29T01:25:59.932Z,75.10
2023-03-29T01:27:34.526Z,75.00
2023-03-29T01:28:59.267Z,75.00
2023-03-29T01:30:23.121Z,75.10
2023-03-29T01:31:47.121Z,74.90
2023-03-29T01:33:11.928Z,74.90
2023-03-29T01:34:36.823Z,75.20
2023-03-29T01:36:02.703Z,75.50
2023-03-29T01:37:25.936Z,75.30
2023-03-29T01:38:50.664Z,75.50
2023-03-29T01:40:12.260Z,75.60
2023-03-29T01:41:38.408Z,75.00
2023-03-29T01:43:06.971Z,76.40
2023-03-29T01:44:31.621Z,75.60
2023-03-29T01:45:58.361Z,75.50
2023-03-29T01:47:24.712Z,75.70
2023-03-29T01:48:49.583Z,75.50
2023-03-29T01:50:13.820Z,75.90
2023-03-29T01:51:37.745Z,75.70
2023-03-29T01:53:00.684Z,76.00
2023-03-29T01:54:25.521Z,75.90
2023-03-29T01:55:50.039Z,75.60
2023-03-29T01:57:11.195Z,76.00
2023-03-29T01:58:35.761Z,75.50
2023-03-29T01:59:57.749Z,75.80
2023-03-29T02:01:21.497Z,75.80
2023-03-29T02:02:42.801Z,76.00
2023-03-29T02:04:05.258Z,76.70
2023-03-29T02:05:27.249Z,76.30
2023-03-29T02:06:48.984Z,76.70
2023-03-29T02:08:14.285Z,76.00
2023-03-29T02:09:36.826Z,76.20
2023-03-29T02:10:58.014Z,76.70
2023-03-29T02:12:19.736Z,76.80
2023-03-29T02:13:42.056Z,76.20
2023-03-29T02:15:03.103Z,76.70
2023-03-29T02:16:23.801Z,77.00
2023-03-29T02:17:44.810Z,77.10
2023-03-29T02:19:05.846Z,76.70
2023-03-29T02:20:28.429Z,76.70
2023-03-29T02:21:52.992Z,76.60
2023-03-29T02:23:16.159Z,76.50
2023-03-29T02:24:37.450Z,76.40
2023-03-29T02:25:58.059Z,76.60
2023-03-29T02:27:18.577Z,76.10
2023-03-29T02:28:39.227Z,75.90
2023-03-29T02:30:01.526Z,76.00
2023-03-29T02:31:25.318Z,76.60
2023-03-29T02:32:48.861Z,76.20
2023-03-29T02:34:14.517Z,76.20
2023-03-29T02:35:37.732Z,76.20
2023-03-29T02:37:00.089Z,76.10
2023-03-29T02:38:21.737Z,76.00
2023-03-29T02:39:42.906Z,75.90
2023-03-29T02:41:04.487Z,76.10
2023-03-29T02:42:25.789Z,76.60
2023-03-29T02:43:47.253Z,76.50
2023-03-29T02:45:11.555Z,76.20
2023-03-29T02:46:32.208Z,76.40
2023-03-29T02:47:55.555Z,76.30
2023-03-29T02:49:16.126Z,76.50
2023-03-29T02:50:38.496Z,76.30
2023-03-29T02:52:05.559Z,76.50
2023-03-29T02:53:29.922Z,76.60
2023-03-29T02:54:53.107Z,76.30
2023-03-29T02:56:14.831Z,76.20
2023-03-29T02:57:35.188Z,76.30
2023-03-29T02:58:55.746Z,76.10
2023-03-29T03:00:18.903Z,76.40
2023-03-29T03:01:39.826Z,76.40
2023-03-29T03:03:02.051Z,76.20
2023-03-29T03:04:22.805Z,76.50
2023-03-29T03:05:43.620Z,76.50
2023-03-29T03:07:04.525Z,76.50
2023-03-29T03:08:25.142Z,76.40
2023-03-29T03:09:45.463Z,76.60
2023-03-29T03:11:06.517Z,76.40
2023-03-29T03:12:27.040Z,76.50
2023-03-29T03:13:47.654Z,76.20
2023-03-29T03:15:08.905Z,76.10
2023-03-29T03:16:30.891Z,76.20
2023-03-29T03:17:51.706Z,76.30
2023-03-29T03:19:12.640Z,76.30
2023-03-29T03:20:33.501Z,76.90
2023-03-29T03:21:54.334Z,76.80
2023-03-29T03:23:14.771Z,76.60
2023-03-29T03:24:35.567Z,76.50
2023-03-29T03:25:56.676Z,76.70
2023-03-29T03:27:17.364Z,76.90
2023-03-29T03:28:38.725Z,76.90
2023-03-29T03:29:59.302Z,76.60
2023-03-29T03:31:19.964Z,76.80
2023-03-29T03:32:41.954Z,77.10
2023-03-29T03:34:02.641Z,76.90
2023-03-29T03:35:23.518Z,76.90
2023-03-29T03:36:44.022Z,76.70
2023-03-29T03:38:04.929Z,77.40
2023-03-29T03:39:25.938Z,77.30
2023-03-29T03:40:53.565Z,77.10
2023-03-29T03:42:14.090Z,76.80
2023-03-29T03:43:34.830Z,76.80
2023-03-29T03:44:55.692Z,77.00
2023-03-29T03:46:16.847Z,76.90
2023-03-29T03:47:38.258Z,77.20
2023-03-29T03:49:00.214Z,77.30
2023-03-29T03:50:20.872Z,77.40
2023-03-29T03:51:41.981Z,77.40
2023-03-29T03:53:02.787Z,77.10
2023-03-29T03:54:23.649Z,77.30
2023-03-29T03:55:47.942Z,77.00
2023-03-29T03:57:08.793Z,77.00
2023-03-29T03:58:29.126Z,77.30
2023-03-29T03:59:49.844Z,77.30
2023-03-29T04:01:10.836Z,77.30
2023-03-29T04:02:31.274Z,77.00
2023-03-29T04:03:51.891Z,77.30
2023-03-29T04:05:14.466Z,77.30
2023-03-29T04:06:35.312Z,77.30
2023-03-29T04:07:56.122Z,77.50
2023-03-29T04:09:16.862Z,77.60
2023-03-29T04:10:37.562Z,77.80
2023-03-29T04:11:58.967Z,77.70
2023-03-29T04:13:19.723Z,77.70
2023-03-29T04:14:40.686Z,77.70
2023-03-29T04:16:01.834Z,77.60
2023-03-29T04:17:22.826Z,77.90
2023-03-29T04:18:43.596Z,77.80
2023-03-29T04:20:04.916Z,77.80
2023-03-29T04:21:26.696Z,78.00
2023-03-29T04:22:47.039Z,77.90
2023-03-29T04:24:08.189Z,78.10
2023-03-29T04:25:28.495Z,78.00
2023-03-29T04:26:49.023Z,78.10
2023-03-29T04:28:10.066Z,78.30
2023-03-29T04:29:30.983Z,78.10
2023-03-29T04:30:51.839Z,78.00
2023-03-29T04:32:12.211Z,78.20
2023-03-29T04:33:32.591Z,78.20
2023-03-29T04:34:53.365Z,78.30
2023-03-29T04:36:14.076Z,78.40
2023-03-29T04:37:36.501Z,78.50
2023-03-29T04:38:57.198Z,78.30
2023-03-29T04:40:17.896Z,78.40
2023-03-29T04:41:38.662Z,78.30
2023-03-29T04:42:59.270Z,78.30
2023-03-29T04:44:20.109Z,78.40
2023-03-29T04:45:40.684Z,78.50
2023-03-29T04:47:01.558Z,78.70
2023-03-29T04:48:22.325Z,78.50
2023-03-29T04:49:43.018Z,78.90
2023-03-29T04:51:04.245Z,78.80
2023-03-29T04:52:25.124Z,78.90
2023-03-29T04:53:46.949Z,78.90
2023-03-29T04:55:08.649Z,78.80
2023-03-29T04:56:29.256Z,78.90
2023-03-29T04:57:49.703Z,78.80
2023-03-29T04:59:10.498Z,78.70
2023-03-29T05:00:31.642Z,78.70
2023-03-29T05:01:52.557Z,78.50
2023-03-29T05:03:13.438Z,78.70
2023-03-29T05:04:34.152Z,78.70
2023-03-29T05:06:02.579Z,78.90
2023-03-29T05:07:23.394Z,78.90
2023-03-29T05:08:44.038Z,78.80
2023-03-29T05:10:07.338Z,78.80
2023-03-29T05:11:27.971Z,79.10
2023-03-29T05:12:48.813Z,79.10
2023-03-29T05:14:09.295Z,79.10
2023-03-29T05:15:30.395Z,79.20
2023-03-29T05:16:50.789Z,79.10
2023-03-29T05:18:11.604Z,79.00
2023-03-29T05:19:32.341Z,79.00
2023-03-29T05:20:55.588Z,79.10
2023-03-29T05:22:16.183Z,79.10
2023-03-29T05:23:36.654Z,79.30
2023-03-29T05:24:57.692Z,79.30
2023-03-29T05:26:19.783Z,79.30
2023-03-29T05:27:40.235Z,79.50
2023-03-29T05:29:00.841Z,79.40
2023-03-29T05:30:21.406Z,79.40
2023-03-29T05:31:42.245Z,79.40
2023-03-29T05:33:03.509Z,79.60
2023-03-29T05:34:23.953Z,79.70
2023-03-29T05:35:44.534Z,79.80
2023-03-29T05:37:05.584Z,79.80
2023-03-29T05:38:26.372Z,79.80
2023-03-29T05:39:47.099Z,79.80
2023-03-29T05:41:08.206Z,79.90
2023-03-29T05:42:30.004Z,80.20
2023-03-29T05:43:50.489Z,80.10
2023-03-29T05:45:11.604Z,80.00
2023-03-29T05:46:31.976Z,80.00
2023-03-29T05:47:52.437Z,80.10
2023-03-29T05:49:12.874Z,80.30
2023-03-29T05:50:33.348Z,80.20
2023-03-29T05:51:54.157Z,80.10
2023-03-29T05:53:14.601Z,80.10
2023-03-29T05:54:35.282Z,80.10
2023-03-29T05:55:56.210Z,79.90
2023-03-29T05:57:17.158Z,80.20
2023-03-29T05:58:39.165Z,80.40
2023-03-29T05:59:59.739Z,80.50
2023-03-29T06:01:20.637Z,80.70
2023-03-29T06:02:41.426Z,80.90
2023-03-29T06:04:02.633Z,80.70
2023-03-29T06:05:23.494Z,80.90
2023-03-29T06:06:44.560Z,80.70
2023-03-29T06:08:05.570Z,81.00
2023-03-29T06:09:26.317Z,81.00
2023-03-29T06:10:47.036Z,81.00
2023-03-29T06:12:08.561Z,81.00
2023-03-29T06:13:29.517Z,81.10
2023-03-29T06:14:51.450Z,81.20
2023-03-29T06:16:12.244Z,81.30
2023-03-29T06:17:32.790Z,81.60
2023-03-29T06:18:53.550Z,81.70
2023-03-29T06:20:14.712Z,81.50
2023-03-29T06:21:36.256Z,81.80
2023-03-29T06:22:56.418Z,81.70
2023-03-29T06:24:17.103Z,81.60
2023-03-29T06:25:38.104Z,81.60
2023-03-29T06:26:58.551Z,81.60
2023-03-29T06:28:19.506Z,81.70
2023-03-29T06:29:40.603Z,81.80
2023-03-29T06:31:04.461Z,81.80
2023-03-29T06:32:25.739Z,81.80
2023-03-29T06:33:46.339Z,81.80
2023-03-29T06:35:08.080Z,82.10
2023-03-29T06:36:28.888Z,81.90
2023-03-29T06:37:49.572Z,81.50
2023-03-29T06:39:10.559Z,81.70
2023-03-29T06:40:31.423Z,81.60
2023-03-29T06:41:51.951Z,81.60
2023-03-29T06:43:12.599Z,81.80
2023-03-29T06:44:33.888Z,81.80
2023-03-29T06:45:54.860Z,81.70
2023-03-29T06:47:17.021Z,81.70
2023-03-29T06:48:37.547Z,81.50
2023-03-29T06:49:58.326Z,81.60
2023-03-29T06:51:21.120Z,81.60
2023-03-29T06:52:43.119Z,81.70
2023-03-29T06:54:03.793Z,81.90
2023-03-29T06:55:24.770Z,81.70
2023-03-29T06:56:45.477Z,81.90
2023-03-29T06:58:05.774Z,81.90
2023-03-29T06:59:26.950Z,81.70
2023-03-29T07:00:47.698Z,81.70
2023-03-29T07:02:09.377Z,81.70
2023-03-29T07:03:31.250Z,81.70
2023-03-29T07:04:51.865Z,81.70
2023-03-29T07:06:12.909Z,81.60
2023-03-29T07:07:33.384Z,81.70
2023-03-29T07:08:54.048Z,81.70
2023-03-29T07:10:14.895Z,81.70
2023-03-29T07:11:35.476Z,81.90
2023-03-29T07:12:56.071Z,81.60
2023-03-29T07:14:17.064Z,81.90
2023-03-29T07:15:37.618Z,81.60
2023-03-29T07:16:58.569Z,81.40
2023-03-29T07:18:19.245Z,81.30
2023-03-29T07:19:41.230Z,81.60
2023-03-29T07:21:02.084Z,81.50
2023-03-29T07:22:23.021Z,81.50
2023-03-29T07:23:43.863Z,81.60
2023-03-29T07:25:05.233Z,81.60
2023-03-29T07:26:28.828Z,81.80
2023-03-29T07:27:51.271Z,81.80
2023-03-29T07:29:12.067Z,81.80
2023-03-29T07:30:33.191Z,81.90
2023-03-29T07:31:53.655Z,81.90
2023-03-29T07:33:14.416Z,81.80
2023-03-29T07:34:34.930Z,82.10
2023-03-29T07:35:56.950Z,82.50
2023-03-29T07:37:17.728Z,82.00
2023-03-29T07:38:38.297Z,81.90
2023-03-29T07:39:58.894Z,82.10
2023-03-29T07:41:19.502Z,82.10
2023-03-29T07:42:40.201Z,82.30
2023-03-29T07:44:02.663Z,82.30
2023-03-29T07:45:28.045Z,82.20
2023-03-29T07:46:48.922Z,82.10
2023-03-29T07:48:09.615Z,81.90
2023-03-29T07:49:30.430Z,82.00
2023-03-29T07:50:50.950Z,82.20
2023-03-29T07:52:13.072Z,82.20
2023-03-29T07:53:33.297Z,82.20
2023-03-29T07:54:53.959Z,82.50
2023-03-29T07:56:14.752Z,82.30
2023-03-29T07:57:35.912Z,82.50
2023-03-29T07:58:56.283Z,82.50
2023-03-29T08:00:17.705Z,82.40
2023-03-29T08:01:38.144Z,82.60
2023-03-29T08:02:58.861Z,82.70
2023-03-29T08:04:19.499Z,83.00
2023-03-29T08:05:41.729Z,83.40
2023-03-29T08:07:03.030Z,83.50
2023-03-29T08:08:24.988Z,83.40
2023-03-29T08:09:45.839Z,83.40
2023-03-29T08:11:06.783Z,83.70
2023-03-29T08:12:27.595Z,83.80
2023-03-29T08:13:48.289Z,83.70
2023-03-29T08:15:09.461Z,83.80
2023-03-29T08:16:30.262Z,83.80
2023-03-29T08:17:50.869Z,84.00
2023-03-29T08:19:11.696Z,83.90
2023-03-29T08:20:32.259Z,83.60
2023-03-29T08:21:53.060Z,83.60
2023-03-29T08:23:13.526Z,83.80
2023-03-29T08:24:35.367Z,84.00
2023-03-29T08:25:56.113Z,83.70
2023-03-29T08:27:16.607Z,83.90
2023-03-29T08:28:37.356Z,84.10
2023-03-29T08:29:58.033Z,84.20
2023-03-29T08:31:18.512Z,83.90
2023-03-29T08:32:39.033Z,83.60
2023-03-29T08:33:59.325Z,83.90
2023-03-29T08:35:20.162Z,83.90
2023-03-29T08:36:40.702Z,83.70
2023-03-29T08:38:01.301Z,83.50
2023-03-29T08:39:21.735Z,83.70
2023-03-29T08:40:43.660Z,83.80
2023-03-29T08:42:20.417Z,84.10
2023-03-29T08:43:55.545Z,84.00
2023-03-29T08:45:23.148Z,83.90
2023-03-29T08:46:48.832Z,83.90
2023-03-29T08:48:17.106Z,84.10
2023-03-29T08:49:38.725Z,84.00
2023-03-29T08:51:01.872Z,83.70
2023-03-29T08:52:28.235Z,83.60
2023-03-29T08:53:51.685Z,83.30
2023-03-29T08:55:17.945Z,83.40
2023-03-29T08:56:41.041Z,83.20
2023-03-29T08:58:03.328Z,82.90
2023-03-29T08:59:27.938Z,83.00
2023-03-29T09:00:51.318Z,83.20
2023-03-29T09:02:16.834Z,83.10
2023-03-29T09:03:40.959Z,83.10
2023-03-29T09:05:08.884Z,83.40
2023-03-29T09:06:29.423Z,83.50
2023-03-29T09:07:49.992Z,83.70
2023-03-29T09:09:14.849Z,83.80
2023-03-29T09:10:39.630Z,83.40
2023-03-29T09:12:09.308Z,83.50
2023-03-29T09:13:36.318Z,83.10
2023-03-29T09:15:03.751Z,83.30
2023-03-29T09:16:30.121Z,83.10
2023-03-29T09:17:59.818Z,83.10
2023-03-29T09:19:26.431Z,83.20
2023-03-29T09:20:53.510Z,82.70
2023-03-29T09:22:19.356Z,82.80
2023-03-29T09:24:00.997Z,83.10
2023-03-29T09:25:24.292Z,83.40
2023-03-29T09:26:48.072Z,83.40
2023-03-29T09:28:14.516Z,83.30
2023-03-29T09:29:47.645Z,83.40
2023-03-29T09:31:13.607Z,83.40
2023-03-29T09:32:38.818Z,83.80
2023-03-29T09:34:01.582Z,83.60
2023-03-29T09:35:24.447Z,83.60
2023-03-29T09:36:51.437Z,84.00
2023-03-29T09:38:13.169Z,83.90
2023-03-29T09:39:33.889Z,84.00
2023-03-29T09:40:55.929Z,84.10
2023-03-29T09:42:17.393Z,84.30
2023-03-29T09:43:41.846Z,84.30
2023-03-29T09:45:04.664Z,84.10
2023-03-29T09:46:29.046Z,84.10
2023-03-29T09:47:52.824Z,84.10
2023-03-29T09:49:17.609Z,83.70
2023-03-29T09:50:40.621Z,83.80
2023-03-29T09:52:04.139Z,83.80
2023-03-29T09:53:28.050Z,84.10
2023-03-29T09:54:48.830Z,83.90
2023-03-29T09:56:09.409Z,84.00
2023-03-29T09:57:30.953Z,83.80
2023-03-29T09:58:52.939Z,83.90
2023-03-29T10:00:14.617Z,84.00
2023-03-29T10:01:37.036Z,84.20
2023-03-29T10:02:58.563Z,84.40
2023-03-29T10:04:18.870Z,84.60
2023-03-29T10:05:39.678Z,84.60
2023-03-29T10:07:00.321Z,84.50
2023-03-29T10:08:25.386Z,84.40
2023-03-29T10:09:46.767Z,84.70
2023-03-29T10:11:12.535Z,84.80
2023-03-29T10:12:33.684Z,84.60
2023-03-29T10:14:00.058Z,85.00
2023-03-29T10:15:29.217Z,85.00
2023-03-29T10:16:56.136Z,85.20
2023-03-29T10:18:16.910Z,85.40
2023-03-29T10:19:37.555Z,85.40
2023-03-29T10:20:58.960Z,85.70
2023-03-29T10:22:22.107Z,85.40
2023-03-29T10:23:43.208Z,85.40
2023-03-29T10:25:04.522Z,85.60
2023-03-29T10:26:30.913Z,85.80
2023-03-29T10:27:51.330Z,85.60
2023-03-29T10:29:13.672Z,85.30
2023-03-29T10:30:35.930Z,85.60
2023-03-29T10:31:56.827Z,85.50
2023-03-29T10:33:20.167Z,85.70
2023-03-29T10:34:40.692Z,85.30
2023-03-29T10:36:04.147Z,85.30
2023-03-29T10:37:28.646Z,85.00
2023-03-29T10:38:50.617Z,85.30
2023-03-29T10:40:19.929Z,85.50
2023-03-29T10:41:40.737Z,84.70
2023-03-29T10:43:11.985Z,84.60
2023-03-29T10:44:35.556Z,84.90
2023-03-29T10:45:57.528Z,85.50
2023-03-29T10:47:20.033Z,85.00
2023-03-29T10:48:45.911Z,85.00
2023-03-29T10:50:08.942Z,84.90
2023-03-29T10:51:29.866Z,84.80
2023-03-29T10:52:50.942Z,84.70
2023-03-29T10:54:15.774Z,84.70
2023-03-29T10:55:40.750Z,85.50
2023-03-29T10:57:04.341Z,85.10
2023-03-29T10:58:32.380Z,84.70
2023-03-29T10:59:59.804Z,84.80
2023-03-29T11:01:25.183Z,84.80
2023-03-29T11:03:01.365Z,83.90
2023-03-29T11:04:27.989Z,83.90
2023-03-29T11:05:52.265Z,83.90
2023-03-29T11:07:25.848Z,83.90
2023-03-29T11:08:57.906Z,83.70
2023-03-29T11:10:32.119Z,83.60
2023-03-29T11:12:15.070Z,83.50
2023-03-29T11:13:42.554Z,82.80
2023-03-29T11:15:13.293Z,82.90
2023-03-29T11:16:38.914Z,82.50
2023-03-29T11:18:07.248Z,82.10
2023-03-29T11:19:50.118Z,82.40
2023-03-29T11:21:19.775Z,82.30
2023-03-29T11:22:45.911Z,82.40
2023-03-29T11:24:26.908Z,82.70
2023-03-29T11:25:53.825Z,82.50
2023-03-29T11:27:22.275Z,82.50
2023-03-29T11:28:48.239Z,82.70
2023-03-29T11:30:15.205Z,82.90
2023-03-29T11:31:43.483Z,83.20
2023-03-29T11:33:09.323Z,83.00
2023-03-29T11:34:35.489Z,83.10
2023-03-29T11:36:04.356Z,82.70
2023-03-29T11:37:30.711Z,82.70
2023-03-29T11:38:58.340Z,82.70
2023-03-29T11:40:31.969Z,82.30
2023-03-29T11:41:55.950Z,82.10
2023-03-29T11:43:19.997Z,82.20
2023-03-29T11:44:41.758Z,81.90
2023-03-29T11:46:09.767Z,81.60
2023-03-29T11:47:32.528Z,81.50
2023-03-29T11:48:58.995Z,81.50
2023-03-29T11:50:25.371Z,81.30
2023-03-29T11:51:48.591Z,81.70
2023-03-29T11:53:11.448Z,81.80
2023-03-29T11:54:36.037Z,81.80
2023-03-29T11:56:00.301Z,81.90
2023-03-29T11:57:23.741Z,82.30
2023-03-29T11:58:50.243Z,82.50
2023-03-29T12:00:13.658Z,82.20
2023-03-29T12:01:39.829Z,82.40
2023-03-29T12:03:03.194Z,82.40
2023-03-29T12:04:27.427Z,82.20
2023-03-29T12:05:59.404Z,82.00
2023-03-29T12:07:23.930Z,81.50
2023-03-29T12:08:48.158Z,81.20
2023-03-29T12:10:13.842Z,81.30
2023-03-29T12:11:38.000Z,81.30
2023-03-29T12:13:01.323Z,81.50
2023-03-29T12:14:27.917Z,81.30
2023-03-29T12:15:52.826Z,81.30
2023-03-29T12:17:16.891Z,81.40
2023-03-29T12:18:40.603Z,81.50
2023-03-29T12:20:10.781Z,81.30
2023-03-29T12:21:32.527Z,80.80
2023-03-29T12:22:54.847Z,80.70
2023-03-29T12:24:17.137Z,80.70
2023-03-29T12:25:42.412Z,80.70
2023-03-29T12:27:19.044Z,80.40
2023-03-29T12:28:56.162Z,80.30
2023-03-29T12:30:23.957Z,79.90
2023-03-29T12:31:50.853Z,79.80
2023-03-29T12:33:36.462Z,80.20
2023-03-29T12:35:05.961Z,80.00
2023-03-29T12:36:54.518Z,80.20
2023-03-29T12:38:19.392Z,80.10
2023-03-29T12:39:39.974Z,80.00
2023-03-29T12:41:15.048Z,79.60
2023-03-29T12:42:44.307Z,79.80
2023-03-29T12:44:05.705Z,80.30
2023-03-29T12:45:29.117Z,79.40
2023-03-29T12:46:52.235Z,79.60
2023-03-29T12:48:17.103Z,79.40
2023-03-29T12:49:38.887Z,79.00
2023-03-29T12:50:59.475Z,78.90
2023-03-29T12:52:27.176Z,79.10
2023-03-29T12:53:49.547Z,78.90
2023-03-29T12:55:22.692Z,78.90
2023-03-29T12:56:56.419Z,78.70
2023-03-29T12:58:36.800Z,78.30
2023-03-29T13:00:11.009Z,78.90
2023-03-29T13:01:33.151Z,78.70
2023-03-29T13:03:01.213Z,78.40
2023-03-29T13:04:36.231Z,79.20
2023-03-29T13:06:00.911Z,78.70
2023-03-29T13:07:43.578Z,77.90
2023-03-29T13:09:20.457Z,77.10
2023-03-29T13:10:42.472Z,76.80
2023-03-29T13:12:18.790Z,76.40
2023-03-29T13:13:40.608Z,77.10
2023-03-29T13:15:03.221Z,76.80
2023-03-29T13:16:30.325Z,76.60
2023-03-29T13:17:58.762Z,76.60
2023-03-29T13:19:30.375Z,76.50
2023-03-29T13:20:56.752Z,76.90
2023-03-29T13:22:26.283Z,77.00
2023-03-29T13:23:54.454Z,76.60
2023-03-29T13:25:28.233Z,76.20
2023-03-29T13:26:54.996Z,76.70
2023-03-29T13:28:20.220Z,76.10
2023-03-29T13:30:06.330Z,75.90
2023-03-29T13:31:33.625Z,77.10
2023-03-29T13:33:10.698Z,76.30
2023-03-29T13:34:37.936Z,76.30
2023-03-29T13:36:02.983Z,76.50
2023-03-29T13:37:31.856Z,76.40
2023-03-29T13:38:59.845Z,75.80
2023-03-29T13:40:32.113Z,75.80
2023-03-29T13:41:54.511Z,76.10
2023-03-29T13:43:22.589Z,77.20
2023-03-29T13:44:44.453Z,76.90
2023-03-29T13:46:19.228Z,76.60
2023-03-29T13:47:58.380Z,76.60
2023-03-29T13:49:25.930Z,76.40
2023-03-29T13:50:55.364Z,76.10
2023-03-29T13:52:19.760Z,75.90
2023-03-29T13:53:44.233Z,75.70
2023-03-29T13:55:08.426Z,75.90
2023-03-29T13:56:32.898Z,74.80
2023-03-29T13:57:56.316Z,75.10
2023-03-29T13:59:19.515Z,75.10
2023-03-29T14:00:44.395Z,75.50
2023-03-29T14:02:05.981Z,75.70
2023-03-29T14:03:27.113Z,76.20
2023-03-29T14:04:50.147Z,76.00
2023-03-29T14:06:13.937Z,75.50
2023-03-29T14:07:38.287Z,74.60
2023-03-29T14:08:59.846Z,75.20
2023-03-29T14:10:27.224Z,75.00
2023-03-29T14:11:48.024Z,74.70
2023-03-29T14:13:12.284Z,74.70
2023-03-29T14:14:32.806Z,74.60
2023-03-29T14:15:55.389Z,74.60
2023-03-29T14:17:19.425Z,74.60
2023-03-29T14:18:40.829Z,75.60
2023-03-29T14:20:06.462Z,74.40
2023-03-29T14:21:28.618Z,74.70
2023-03-29T14:22:49.765Z,74.40
2023-03-29T14:24:12.821Z,74.40
2023-03-29T14:25:37.264Z,74.70
2023-03-29T14:26:57.817Z,74.30
2023-03-29T14:28:22.787Z,74.80
2023-03-29T14:29:45.958Z,74.70
2023-03-29T14:31:16.227Z,74.50
2023-03-29T14:32:36.964Z,73.90
2023-03-29T14:33:59.209Z,72.80
2023-03-29T14:35:20.370Z,73.40
2023-03-29T14:36:44.604Z,73.50
2023-03-29T14:38:06.320Z,72.70
2023-03-29T14:39:26.791Z,72.60
2023-03-29T14:40:47.252Z,72.90
2023-03-29T14:42:14.808Z,72.70
2023-03-29T14:43:35.412Z,73.80
2023-03-29T14:44:58.550Z,73.30
2023-03-29T14:46:20.707Z,73.10
2023-03-29T14:47:41.949Z,73.00
2023-03-29T14:49:02.781Z,73.30
2023-03-29T14:50:26.844Z,73.50
2023-03-29T14:51:49.293Z,73.10
2023-03-29T14:53:17.149Z,73.60
2023-03-29T14:54:38.073Z,73.60
2023-03-29T14:55:58.958Z,73.00
2023-03-29T14:57:19.646Z,73.10
2023-03-29T14:58:44.633Z,73.80
2023-03-29T15:00:17.194Z,73.80
2023-03-29T15:01:44.312Z,73.60
2023-03-29T15:03:13.296Z,73.30
2023-03-29T15:04:34.161Z,73.00
2023-03-29T15:05:57.469Z,73.20
2023-03-29T15:07:22.751Z,73.10
2023-03-29T15:08:54.339Z,74.00
2023-03-29T15:10:24.978Z,74.10
2023-03-29T15:11:51.729Z,73.80
2023-03-29T15:13:18.766Z,73.80
2023-03-29T15:14:39.619Z,74.40
2023-03-29T15:16:02.875Z,74.40
2023-03-29T15:17:39.505Z,74.20
2023-03-29T15:19:12.484Z,74.50
2023-03-29T15:20:34.399Z,75.10
2023-03-29T15:21:54.720Z,74.60
2023-03-29T15:23:24.427Z,74.70
2023-03-29T15:24:47.948Z,74.80
2023-03-29T15:26:13.058Z,74.80
2023-03-29T15:27:40.958Z,74.80
2023-03-29T15:29:02.955Z,75.10
2023-03-29T15:30:32.693Z,74.80
2023-03-29T15:31:55.471Z,75.30
2023-03-29T15:33:20.069Z,74.80
2023-03-29T15:34:41.275Z,75.20
2023-03-29T15:36:02.720Z,74.80
2023-03-29T15:37:25.764Z,75.00
2023-03-29T15:38:48.852Z,75.30
2023-03-29T15:40:16.181Z,75.30
2023-03-29T15:41:40.607Z,75.20
2023-03-29T15:43:01.245Z,75.40
2023-03-29T15:44:29.379Z,75.70
2023-03-29T15:45:51.210Z,76.70
2023-03-29T15:47:13.682Z,76.70
2023-03-29T15:48:41.124Z,76.30
2023-03-29T15:50:08.125Z,76.90
2023-03-29T15:51:33.061Z,77.30
2023-03-29T15:53:08.652Z,76.70
2023-03-29T15:54:38.695Z,77.20
2023-03-29T15:56:05.324Z,77.00
2023-03-29T15:57:26.832Z,77.40
2023-03-29T15:58:49.032Z,77.10
2023-03-29T16:00:15.788Z,76.80
2023-03-29T16:01:37.567Z,76.70
2023-03-29T16:03:06.808Z,76.80
2023-03-29T16:04:35.853Z,76.80
2023-03-29T16:06:05.870Z,76.90
2023-03-29T16:07:31.778Z,76.40
2023-03-29T16:08:57.660Z,76.50
2023-03-29T16:10:19.862Z,76.40
2023-03-29T16:11:42.037Z,76.40
2023-03-29T16:13:02.142Z,76.30
2023-03-29T16:14:24.290Z,76.40
2023-03-29T16:15:44.892Z,76.80
2023-03-29T16:17:06.007Z,76.90
2023-03-29T16:18:27.052Z,77.00
2023-03-29T16:19:47.756Z,76.90
2023-03-29T16:21:12.341Z,76.40
2023-03-29T16:22:33.169Z,76.50
2023-03-29T16:23:53.994Z,76.30
2023-03-29T16:25:16.423Z,76.20
2023-03-29T16:26:38.612Z,76.50
2023-03-29T16:27:59.390Z,76.20
2023-03-29T16:29:20.333Z,76.40
2023-03-29T16:30:40.776Z,76.60
2023-03-29T16:32:02.181Z,76.70
2023-03-29T16:33:24.444Z,76.70
2023-03-29T16:34:45.223Z,76.60
2023-03-29T16:36:07.359Z,76.50
2023-03-29T16:37:27.931Z,76.50
2023-03-29T16:38:48.683Z,76.50
2023-03-29T16:40:10.211Z,76.60
2023-03-29T16:41:31.227Z,76.80
2023-03-29T16:42:53.578Z,76.70
2023-03-29T16:44:16.145Z,76.90
2023-03-29T16:45:36.536Z,76.90
2023-03-29T16:46:57.539Z,77.00
2023-03-29T16:48:19.395Z,77.10
2023-03-29T16:49:40.773Z,77.00
2023-03-29T16:51:02.073Z,77.40
2023-03-29T16:52:22.802Z,77.20
2023-03-29T16:53:43.592Z,77.20
2023-03-29T16:55:05.166Z,77.20
2023-03-29T16:56:26.110Z,77.40
2023-03-29T16:57:47.335Z,77.60
2023-03-29T16:59:09.925Z,77.60
2023-03-29T17:00:30.949Z,77.60
2023-03-29T17:01:51.693Z,77.70
2023-03-29T17:03:12.444Z,77.80
2023-03-29T17:04:33.230Z,77.60
2023-03-29T17:05:54.594Z,78.00
2023-03-29T17:07:15.746Z,77.90
2023-03-29T17:08:36.951Z,78.00
2023-03-29T17:09:57.747Z,78.10
2023-03-29T17:11:18.586Z,78.20
2023-03-29T17:12:39.049Z,78.40
2023-03-29T17:13:59.518Z,78.50
2023-03-29T17:15:21.603Z,78.50
2023-03-29T17:16:42.429Z,78.70
2023-03-29T17:18:03.545Z,79.00
2023-03-29T17:19:24.235Z,79.00
2023-03-29T17:20:45.037Z,78.90
2023-03-29T17:22:06.611Z,78.70
2023-03-29T17:23:27.760Z,78.90
2023-03-29T17:24:48.874Z,78.80
2023-03-29T17:26:09.416Z,79.30
2023-03-29T17:27:30.225Z,79.40
2023-03-29T17:28:51.090Z,79.30
2023-03-29T17:30:12.194Z,79.30
2023-03-29T17:31:34.232Z,79.40
2023-03-29T17:32:55.122Z,79.30
2023-03-29T17:34:16.241Z,79.40
2023-03-29T17:35:36.908Z,79.80
2023-03-29T17:36:57.742Z,79.90
2023-03-29T17:38:18.511Z,79.90
2023-03-29T17:39:39.344Z,79.90
2023-03-29T17:41:00.212Z,79.90
2023-03-29T17:42:20.899Z,80.00
2023-03-29T17:43:41.693Z,80.20
2023-03-29T17:45:02.847Z,80.30
2023-03-29T17:46:23.867Z,80.40
2023-03-29T17:47:46.290Z,80.40
2023-03-29T17:49:07.396Z,80.20
2023-03-29T17:50:28.149Z,80.20
2023-03-29T17:51:48.737Z,80.20
2023-03-29T17:53:09.879Z,80.30